Time;durP1;ratioP1;P1;durP2;ratioP2;P2;SDS_P1;SDS_P2;PMS_P1;PMS_P2;Temp;Humidity;BMP_temperature;BMP_pressure;BME280_temperature;BME280_humidity;BME280_pressure;Samples;Min_cycle;Max_cycle;Signal;HPM_P1;HPM_P2
2023/12/26 00:02:17;;;;;;;0.63;0.63;;;9.50;99.90;;;;;;7747301;28;20180;-90
2023/12/26 00:06:03;;;;;;;0.70;0.23;;;9.40;99.90;;;;;;7746050;28;20742;-90
2023/12/26 00:09:49;;;;;;;1.63;0.60;;;9.40;99.90;;;;;;7761190;28;20191;-90
2023/12/26 00:13:34;;;;;;;0.40;0.40;;;9.40;99.90;;;;;;7777140;28;20661;-90
2023/12/26 00:17:20;;;;;;;0.30;0.30;;;9.40;99.90;;;;;;7764650;28;20184;-90
2023/12/26 00:21:06;;;;;;;0.77;0.30;;;9.40;99.90;;;;;;7748010;28;20195;-90
2023/12/26 00:24:52;;;;;;;0.40;0.40;;;9.40;99.90;;;;;;7745924;28;20211;-90
2023/12/26 00:28:38;;;;;;;0.30;0.30;;;9.40;99.90;;;;;;7747789;28;20654;-90
2023/12/26 00:32:24;;;;;;;2.13;0.23;;;9.40;99.90;;;;;;7747299;28;20595;-90
2023/12/26 00:36:13;;;;;;;0.20;0.20;;;9.40;99.90;;;;;;7759393;28;20277;-90
2023/12/26 00:39:59;;;;;;;0.43;0.40;;;9.40;99.90;;;;;;7747904;28;20689;-90
2023/12/26 00:43:45;;;;;;;0.30;0.30;;;9.40;99.90;;;;;;7745822;28;20621;-89
2023/12/26 00:47:31;;;;;;;0.20;0.20;;;9.40;99.90;;;;;;7745686;28;20299;-90
2023/12/26 00:51:17;;;;;;;0.40;0.17;;;9.40;99.90;;;;;;7746013;28;20186;-90
2023/12/26 00:55:03;;;;;;;0.10;0.10;;;9.40;99.90;;;;;;7762281;28;20242;-90
2023/12/26 00:58:49;;;;;;;0.30;0.10;;;9.40;99.90;;;;;;7755522;28;20721;-90
2023/12/26 01:02:34;;;;;;;0.20;0.20;;;9.50;99.90;;;;;;7744177;28;20194;-90
2023/12/26 01:06:20;;;;;;;0.17;0.10;;;9.50;99.90;;;;;;7742984;28;20212;-89
2023/12/26 01:10:06;;;;;;;0.20;0.20;;;9.50;99.90;;;;;;7745009;28;20180;-90
2023/12/26 01:13:52;;;;;;;0.07;0.07;;;9.50;99.90;;;;;;7761119;28;20219;-90
2023/12/26 01:17:37;;;;;;;0.17;0.17;;;9.60;99.90;;;;;;7767651;28;20275;-90
2023/12/26 01:21:23;;;;;;;0.10;0.10;;;9.60;99.90;;;;;;7746401;28;20669;-90
2023/12/26 01:25:19;;;;;;;0.10;0.10;;;9.60;99.90;;;;;;7746129;28;20208;-90
2023/12/26 01:29:07;;;;;;;0.23;0.10;;;9.60;99.90;;;;;;7742850;28;20233;-89
2023/12/26 01:32:52;;;;;;;0.00;0.00;;;9.60;99.90;;;;;;7777376;28;20190;-89
2023/12/26 01:36:38;;;;;;;0.10;0.00;;;9.70;99.90;;;;;;7748314;28;20721;-90
2023/12/26 01:40:24;;;;;;;0.10;0.10;;;9.70;99.90;;;;;;7774118;28;20189;-89
2023/12/26 01:44:10;;;;;;;0.10;0.10;;;9.70;99.90;;;;;;7777182;28;20206;-90
2023/12/26 01:47:59;;;;;;;0.10;0.10;;;9.70;99.90;;;;;;7776267;28;20215;-89
2023/12/26 01:51:45;;;;;;;0.10;0.10;;;9.70;99.90;;;;;;7776214;28;20188;-89
2023/12/26 01:55:31;;;;;;;0.10;0.10;;;9.70;99.90;;;;;;7775533;28;20203;-90
2023/12/26 01:59:17;;;;;;;0.77;0.10;;;9.70;99.90;;;;;;7776595;28;20190;-90
2023/12/26 02:03:03;;;;;;;0.13;0.13;;;9.70;99.90;;;;;;7749771;28;20192;-90
2023/12/26 02:06:49;;;;;;;0.10;0.10;;;9.80;99.90;;;;;;7744956;28;20227;-89
2023/12/26 02:10:35;;;;;;;0.10;0.10;;;9.80;99.90;;;;;;7746016;28;20817;-89
2023/12/26 02:14:21;;;;;;;0.10;0.10;;;9.80;99.90;;;;;;7753934;28;20636;-89
2023/12/26 02:18:07;;;;;;;0.10;0.10;;;9.80;99.90;;;;;;7776073;28;20683;-90
2023/12/26 02:21:52;;;;;;;0.10;0.10;;;9.80;99.90;;;;;;7769776;28;20618;-90
2023/12/26 02:25:38;;;;;;;0.10;0.10;;;9.80;99.90;;;;;;7769217;28;20815;-89
2023/12/26 02:29:25;;;;;;;0.10;0.10;;;9.80;99.90;;;;;;7768343;28;20188;-89
2023/12/26 02:33:11;;;;;;;0.03;0.03;;;9.80;99.90;;;;;;7771498;28;20237;-89
2023/12/26 02:36:57;;;;;;;0.10;0.10;;;9.90;99.90;;;;;;7774757;28;20294;-90
2023/12/26 02:40:43;;;;;;;0.27;0.20;;;9.90;99.90;;;;;;7775778;28;20202;-89
2023/12/26 02:44:28;;;;;;;1.70;0.20;;;9.90;99.90;;;;;;7771273;28;20200;-90
2023/12/26 02:48:16;;;;;;;0.23;0.20;;;9.90;99.90;;;;;;7744867;28;20219;-89
2023/12/26 02:52:03;;;;;;;0.17;0.17;;;9.90;99.90;;;;;;7746515;28;20172;-89
2023/12/26 02:55:54;;;;;;;0.10;0.10;;;9.90;99.90;;;;;;7752001;28;20290;-89
2023/12/26 02:59:40;;;;;;;0.10;0.10;;;9.90;99.90;;;;;;7772805;28;20612;-90
2023/12/26 03:03:25;;;;;;;0.20;0.20;;;10.00;99.90;;;;;;7748944;28;20584;-90
2023/12/26 03:07:11;;;;;;;0.10;0.10;;;10.00;99.90;;;;;;7763666;28;20249;-90
2023/12/26 03:10:57;;;;;;;0.23;0.20;;;10.00;99.90;;;;;;7770437;28;20549;-89
2023/12/26 03:14:42;;;;;;;0.43;0.20;;;10.00;99.90;;;;;;7750718;28;20630;-90
2023/12/26 03:18:29;;;;;;;0.20;0.20;;;10.00;99.90;;;;;;7745997;28;20273;-89
2023/12/26 03:22:15;;;;;;;0.20;0.20;;;9.90;99.90;;;;;;7744447;28;20645;-90
2023/12/26 03:26:01;;;;;;;0.10;0.10;;;9.90;99.90;;;;;;7743449;28;20214;-90
2023/12/26 03:29:47;;;;;;;0.10;0.10;;;9.80;99.90;;;;;;7744664;28;20606;-90
2023/12/26 03:33:33;;;;;;;0.13;0.13;;;9.80;99.90;;;;;;7752742;28;20208;-89
2023/12/26 03:37:18;;;;;;;0.20;0.17;;;9.70;99.90;;;;;;7748898;28;20778;-90
2023/12/26 03:41:04;;;;;;;0.47;0.30;;;9.70;99.90;;;;;;7750267;28;20188;-89
2023/12/26 03:44:50;;;;;;;0.20;0.20;;;9.70;99.90;;;;;;7749018;28;20235;-89
2023/12/26 03:48:36;;;;;;;0.50;0.30;;;9.70;99.90;;;;;;7749890;28;20219;-90
2023/12/26 03:52:21;;;;;;;0.40;0.30;;;9.80;99.90;;;;;;7750969;28;20192;-89
2023/12/26 03:56:07;;;;;;;0.37;0.37;;;9.80;99.90;;;;;;7772682;28;20262;-90
2023/12/26 03:59:53;;;;;;;0.20;0.20;;;9.80;99.90;;;;;;7749729;28;20288;-89
2023/12/26 04:03:38;;;;;;;0.27;0.20;;;9.80;99.90;;;;;;7754534;28;20677;-90
2023/12/26 04:07:28;;;;;;;1.60;0.40;;;9.80;99.90;;;;;;7778243;28;20214;-89
2023/12/26 04:11:14;;;;;;;0.30;0.30;;;9.80;99.90;;;;;;7779821;28;20183;-89
2023/12/26 04:14:59;;;;;;;0.40;0.40;;;9.70;99.90;;;;;;7770649;28;20215;-89
2023/12/26 04:18:45;;;;;;;0.50;0.50;;;9.80;99.90;;;;;;7794155;28;20183;-89
2023/12/26 04:22:31;;;;;;;0.23;0.23;;;9.80;99.90;;;;;;7779522;28;20195;-89
2023/12/26 04:26:17;;;;;;;0.23;0.23;;;9.80;99.90;;;;;;7778536;28;20222;-89
2023/12/26 04:30:02;;;;;;;0.20;0.20;;;9.80;99.90;;;;;;7760628;28;20573;-89
2023/12/26 04:33:48;;;;;;;0.30;0.30;;;9.80;99.90;;;;;;7748184;28;20295;-89
2023/12/26 04:37:34;;;;;;;0.60;0.30;;;9.80;99.90;;;;;;7748332;28;20259;-89
2023/12/26 04:41:19;;;;;;;0.30;0.30;;;9.80;99.90;;;;;;7764514;28;20238;-89
2023/12/26 04:45:05;;;;;;;0.57;0.20;;;9.80;99.90;;;;;;7747996;28;20626;-89
2023/12/26 04:48:52;;;;;;;1.30;0.37;;;9.80;99.90;;;;;;7749162;28;20207;-89
2023/12/26 04:52:37;;;;;;;0.30;0.27;;;9.80;99.90;;;;;;7760268;28;20203;-89
2023/12/26 04:56:23;;;;;;;1.73;1.53;;;9.80;99.90;;;;;;7747675;28;20692;-88
2023/12/26 05:00:10;;;;;;;0.50;0.30;;;9.80;99.90;;;;;;7747769;28;20184;-89
2023/12/26 05:03:56;;;;;;;0.40;0.37;;;9.80;99.90;;;;;;7755280;28;20602;-89
2023/12/26 05:07:42;;;;;;;0.20;0.20;;;9.80;99.90;;;;;;7747351;28;20219;-90
2023/12/26 05:11:27;;;;;;;0.37;0.30;;;9.80;99.90;;;;;;7752142;28;20637;-89
2023/12/26 05:15:13;;;;;;;0.40;0.10;;;9.80;99.90;;;;;;7777175;28;20211;-89
2023/12/26 05:18:59;;;;;;;0.10;0.10;;;9.80;99.90;;;;;;7749993;28;20188;-89
2023/12/26 05:22:45;;;;;;;0.23;0.10;;;9.80;99.90;;;;;;7747108;28;20187;-89
2023/12/26 05:26:36;;;;;;;0.60;0.30;;;9.80;99.90;;;;;;7748736;28;20684;-90
2023/12/26 05:30:22;;;;;;;0.10;0.10;;;9.80;99.90;;;;;;7746992;28;20168;-89
2023/12/26 05:34:08;;;;;;;0.20;0.20;;;9.80;99.90;;;;;;7748751;28;20662;-88
2023/12/26 05:37:53;;;;;;;0.33;0.20;;;9.80;99.90;;;;;;7778318;28;20648;-90
2023/12/26 05:41:42;;;;;;;0.43;0.27;;;9.80;99.90;;;;;;7777977;28;20183;-90
2023/12/26 05:45:29;;;;;;;1.33;0.10;;;9.80;99.90;;;;;;7764021;28;20290;-91
2023/12/26 05:49:15;;;;;;;0.20;0.20;;;9.80;99.90;;;;;;7764034;28;20214;-90
2023/12/26 05:53:04;;;;;;;0.10;0.10;;;9.80;99.90;;;;;;7747537;28;20180;-89
2023/12/26 05:56:50;;;;;;;0.70;0.20;;;9.80;99.90;;;;;;7748831;28;20263;-89
2023/12/26 06:00:36;;;;;;;0.17;0.10;;;9.80;99.90;;;;;;7760766;28;20191;-89
2023/12/26 06:04:21;;;;;;;0.20;0.10;;;9.80;99.90;;;;;;7773281;28;20589;-90
2023/12/26 06:08:07;;;;;;;0.20;0.20;;;9.70;99.90;;;;;;7775459;28;20684;-90
2023/12/26 06:11:53;;;;;;;0.30;0.10;;;9.70;99.90;;;;;;7776246;28;20175;-90
2023/12/26 06:15:38;;;;;;;0.20;0.20;;;9.70;99.90;;;;;;7773803;28;20206;-89
2023/12/26 06:19:24;;;;;;;0.30;0.30;;;9.70;99.90;;;;;;7743678;28;20299;-87
2023/12/26 06:23:10;;;;;;;0.53;0.40;;;9.70;99.90;;;;;;7755449;28;20179;-93
2023/12/26 06:26:55;;;;;;;0.20;0.20;;;9.70;99.90;;;;;;7746162;28;20580;-86
2023/12/26 06:30:41;;;;;;;1.40;0.47;;;9.70;99.90;;;;;;7742017;28;20187;-91
2023/12/26 06:34:27;;;;;;;0.10;0.10;;;9.70;99.90;;;;;;7744945;28;20283;-90
2023/12/26 06:38:13;;;;;;;0.10;0.10;;;9.70;99.90;;;;;;7745484;28;20191;-91
2023/12/26 06:41:58;;;;;;;0.20;0.20;;;9.70;99.90;;;;;;7770225;28;20188;-90
2023/12/26 06:45:44;;;;;;;0.00;0.00;;;9.70;99.90;;;;;;7766562;28;20210;-90
2023/12/26 06:49:30;;;;;;;0.00;0.00;;;9.70;99.90;;;;;;7759417;28;20203;-90
2023/12/26 06:53:15;;;;;;;0.10;0.10;;;9.70;99.90;;;;;;7776023;28;20199;-90
2023/12/26 06:57:06;;;;;;;0.00;0.00;;;9.70;99.90;;;;;;7754431;28;20233;-90
2023/12/26 07:00:52;;;;;;;0.23;0.17;;;9.70;99.90;;;;;;7761653;28;20184;-90
2023/12/26 07:04:39;;;;;;;0.47;0.10;;;9.70;99.90;;;;;;7744542;28;20255;-90
2023/12/26 07:08:25;;;;;;;0.10;0.10;;;9.60;99.90;;;;;;7749946;28;20875;-91
2023/12/26 07:12:11;;;;;;;0.10;0.10;;;9.60;99.90;;;;;;7751915;28;20759;-90
2023/12/26 07:15:56;;;;;;;0.10;0.10;;;9.60;99.90;;;;;;7752009;28;20226;-90
2023/12/26 07:19:57;;;;;;;0.40;0.27;;;9.70;99.90;;;;;;7747460;28;20304;-90
2023/12/26 07:23:46;;;;;;;1.70;0.00;;;9.70;99.90;;;;;;7747169;28;20199;-90
2023/12/26 07:27:32;;;;;;;0.93;0.10;;;9.60;99.90;;;;;;7749644;28;20200;-91
2023/12/26 07:31:20;;;;;;;0.10;0.10;;;9.60;99.90;;;;;;7759170;28;20176;-90
2023/12/26 07:35:06;;;;;;;0.20;0.20;;;9.70;99.90;;;;;;7754113;28;20211;-90
2023/12/26 07:39:00;;;;;;;0.40;0.20;;;9.70;99.90;;;;;;7750086;28;20242;-90
2023/12/26 07:42:45;;;;;;;0.20;0.20;;;9.70;99.90;;;;;;7751492;28;20192;-90
2023/12/26 07:46:31;;;;;;;0.53;0.30;;;9.70;99.90;;;;;;7754003;28;20211;-90
2023/12/26 07:50:17;;;;;;;0.10;0.10;;;9.70;99.90;;;;;;7762463;28;20207;-90
2023/12/26 07:54:03;;;;;;;0.30;0.20;;;9.70;99.90;;;;;;7750186;28;20682;-90
2023/12/26 07:57:48;;;;;;;0.40;0.20;;;9.70;99.90;;;;;;7750532;28;20215;-91
2023/12/26 08:01:34;;;;;;;0.30;0.20;;;9.70;99.90;;;;;;7750878;28;20184;-90
2023/12/26 08:05:20;;;;;;;0.80;0.40;;;9.70;99.90;;;;;;7751366;28;20203;-90
2023/12/26 08:09:05;;;;;;;2.43;0.60;;;9.70;99.90;;;;;;7749442;28;20231;-90
2023/12/26 08:12:52;;;;;;;1.07;0.33;;;9.70;99.90;;;;;;7772915;28;20660;-90
2023/12/26 08:16:37;;;;;;;1.17;0.40;;;9.70;99.90;;;;;;7765619;28;20243;-90
2023/12/26 08:20:23;;;;;;;1.00;0.30;;;9.70;99.90;;;;;;7751267;28;20638;-90
2023/12/26 08:24:09;;;;;;;0.57;0.30;;;9.70;99.90;;;;;;7769753;28;20233;-90
2023/12/26 08:27:55;;;;;;;0.40;0.40;;;9.70;99.90;;;;;;7748723;28;20215;-90
2023/12/26 08:31:55;;;;;;;0.30;0.30;;;9.70;99.90;;;;;;7754265;28;20242;-90
2023/12/26 08:35:41;;;;;;;0.43;0.40;;;9.70;99.90;;;;;;7747106;28;20659;-90
2023/12/26 08:39:27;;;;;;;0.20;0.20;;;9.70;99.90;;;;;;7748444;28;20195;-91
2023/12/26 08:43:12;;;;;;;0.20;0.20;;;9.70;99.90;;;;;;7751267;28;20184;-91
2023/12/26 08:47:05;;;;;;;0.47;0.40;;;9.70;99.90;;;;;;7748817;28;20219;-91
2023/12/26 08:50:51;;;;;;;0.60;0.30;;;9.70;99.90;;;;;;7748142;28;20187;-91
2023/12/26 08:54:36;;;;;;;0.40;0.20;;;9.70;99.90;;;;;;7742257;28;20677;-91
2023/12/26 08:58:26;;;;;;;0.57;0.47;;;9.70;99.90;;;;;;7755692;28;20303;-91
2023/12/26 09:02:15;;;;;;;0.63;0.40;;;9.80;99.90;;;;;;7748853;28;20263;-91
2023/12/26 09:06:01;;;;;;;0.40;0.30;;;9.80;99.90;;;;;;7762010;28;20211;-91
2023/12/26 09:09:47;;;;;;;0.50;0.40;;;9.80;99.90;;;;;;7780358;28;20232;-91
2023/12/26 09:13:32;;;;;;;0.60;0.30;;;9.80;99.90;;;;;;7764567;28;20199;-91
2023/12/26 09:17:18;;;;;;;0.70;0.40;;;9.80;99.90;;;;;;7753550;28;20199;-90
2023/12/26 09:21:04;;;;;;;1.23;0.40;;;9.80;99.90;;;;;;7765210;28;20665;-90
2023/12/26 09:24:49;;;;;;;0.70;0.60;;;9.80;99.90;;;;;;7746834;28;20215;-90
2023/12/26 09:28:38;;;;;;;0.70;0.53;;;9.80;99.90;;;;;;7760876;28;20294;-90
2023/12/26 09:32:23;;;;;;;1.10;0.40;;;9.80;99.90;;;;;;7748579;28;20707;-90
2023/12/26 09:36:09;;;;;;;0.20;0.20;;;9.80;99.90;;;;;;7749306;28;20383;-91
2023/12/26 09:39:55;;;;;;;0.30;0.30;;;9.80;99.90;;;;;;7760710;28;20191;-90
2023/12/26 09:43:44;;;;;;;0.43;0.23;;;9.90;99.90;;;;;;7748382;28;20227;-91
2023/12/26 09:47:32;;;;;;;0.40;0.20;;;9.90;99.90;;;;;;7748244;28;20583;-90
2023/12/26 09:51:22;;;;;;;2.20;0.37;;;9.80;99.90;;;;;;7746526;28;20180;-90
2023/12/26 09:55:08;;;;;;;0.30;0.20;;;9.90;99.90;;;;;;7745856;28;20673;-90
2023/12/26 09:58:58;;;;;;;0.40;0.40;;;9.90;99.90;;;;;;7738061;28;20590;-91
2023/12/26 10:02:45;;;;;;;0.30;0.20;;;9.90;99.90;;;;;;7744402;28;20188;-90
2023/12/26 10:06:30;;;;;;;0.60;0.30;;;9.90;99.90;;;;;;7741431;28;20219;-91
2023/12/26 10:10:22;;;;;;;0.30;0.27;;;9.90;99.90;;;;;;7746819;28;20176;-91
2023/12/26 10:14:07;;;;;;;0.43;0.20;;;10.00;99.90;;;;;;7776164;28;20210;-91
2023/12/26 10:17:55;;;;;;;1.43;0.80;;;10.00;99.90;;;;;;7771455;28;20187;-92
2023/12/26 10:21:41;;;;;;;0.37;0.20;;;10.10;99.90;;;;;;7745934;28;20685;-91
2023/12/26 10:25:35;;;;;;;0.53;0.50;;;10.10;99.90;;;;;;7742598;28;20231;-90
2023/12/26 10:29:21;;;;;;;1.90;0.83;;;10.10;99.90;;;;;;7740459;28;20239;-91
2023/12/26 10:33:11;;;;;;;0.57;0.37;;;10.10;99.90;;;;;;7741885;28;20238;-90
2023/12/26 10:37:14;;;;;;;0.43;0.43;;;10.00;99.90;;;;;;7746475;28;20596;-91
2023/12/26 10:41:02;;;;;;;0.70;0.50;;;10.10;99.90;;;;;;7768654;28;20195;-90
2023/12/26 10:45:00;;;;;;;0.93;0.60;;;10.00;99.90;;;;;;7777985;28;20200;-90
2023/12/26 10:48:48;;;;;;;1.67;1.10;;;10.00;99.90;;;;;;7769063;28;20234;-90
2023/12/26 10:57:08;;;;;;;1.13;0.73;;;10.00;99.90;;;;;;7748610;28;20199;-90
2023/12/26 13:54:51;;;;;;;2.77;1.20;;;9.40;99.90;;;;;;7744171;28;20203;-91
2023/12/26 13:58:36;;;;;;;1.20;0.80;;;9.40;99.90;;;;;;7746455;28;20187;-91
2023/12/26 14:02:22;;;;;;;1.33;0.90;;;9.40;99.90;;;;;;7746194;28;20180;-90
2023/12/26 14:06:07;;;;;;;0.80;0.70;;;9.30;99.90;;;;;;7755157;28;20204;-91
2023/12/26 14:10:00;;;;;;;0.80;0.63;;;9.30;99.90;;;;;;7745969;28;20188;-90
2023/12/26 14:13:46;;;;;;;3.73;1.50;;;9.30;99.90;;;;;;7765533;28;20637;-90
2023/12/26 14:17:31;;;;;;;1.17;0.90;;;9.30;99.90;;;;;;7756412;28;20202;-90
2023/12/26 14:21:17;;;;;;;3.37;1.20;;;9.40;99.90;;;;;;7745813;28;20176;-91
2023/12/26 14:25:03;;;;;;;1.47;1.10;;;9.30;99.90;;;;;;7748151;28;20207;-90
2023/12/26 14:28:59;;;;;;;1.63;1.17;;;9.30;99.90;;;;;;7746885;28;20200;-90
2023/12/26 14:32:44;;;;;;;2.40;1.40;;;9.40;99.90;;;;;;7745670;28;20574;-91
2023/12/26 14:36:30;;;;;;;4.40;2.00;;;9.30;99.90;;;;;;7744797;28;20289;-91
2023/12/26 14:40:15;;;;;;;6.03;2.30;;;9.20;99.90;;;;;;7745274;28;20250;-90
2023/12/26 14:44:01;;;;;;;5.30;3.20;;;9.00;99.90;;;;;;7745125;28;20215;-91
2023/12/26 14:47:46;;;;;;;4.60;2.27;;;9.00;99.90;;;;;;7746473;28;20279;-90
2023/12/26 14:51:32;;;;;;;4.17;1.77;;;8.90;99.90;;;;;;7746276;28;20230;-90
2023/12/26 14:55:17;;;;;;;3.07;1.93;;;8.80;99.90;;;;;;7752584;28;20712;-90
2023/12/26 14:59:03;;;;;;;2.33;1.70;;;8.80;99.90;;;;;;7745255;28;20184;-91
2023/12/26 15:02:49;;;;;;;2.63;1.87;;;8.80;99.90;;;;;;7745653;28;20744;-89
2023/12/26 15:06:35;;;;;;;3.57;2.50;;;8.80;99.90;;;;;;7746048;28;20303;-90
2023/12/26 15:10:20;;;;;;;3.77;2.33;;;8.80;99.90;;;;;;7746940;28;20416;-91
2023/12/26 15:14:11;;;;;;;5.50;3.10;;;9.00;99.90;;;;;;7755030;28;20196;-91
2023/12/26 15:17:59;;;;;;;3.93;2.33;;;9.00;99.90;;;;;;7748136;28;20247;-92
2023/12/26 15:21:45;;;;;;;5.57;3.13;;;8.90;99.90;;;;;;7745368;28;20199;-92
2023/12/26 15:25:31;;;;;;;2.93;1.90;;;8.90;99.90;;;;;;7744453;28;20222;-90
2023/12/26 15:29:26;;;;;;;4.60;2.53;;;8.90;99.90;;;;;;7749664;28;20196;-89
2023/12/26 15:33:14;;;;;;;4.33;2.10;;;8.90;99.90;;;;;;7752622;28;20175;-90
2023/12/26 15:37:00;;;;;;;5.53;1.97;;;8.90;99.90;;;;;;7749816;28;20201;-91
2023/12/26 15:40:45;;;;;;;9.33;2.50;;;8.80;99.90;;;;;;7750559;28;20267;-89
2023/12/26 15:44:31;;;;;;;4.20;1.73;;;8.80;99.90;;;;;;7750456;28;20204;-89
2023/12/26 15:48:17;;;;;;;3.73;2.30;;;8.80;99.90;;;;;;7753060;28;20211;-89
2023/12/26 15:52:06;;;;;;;6.70;2.17;;;8.70;99.90;;;;;;7756708;28;20672;-89
2023/12/26 15:55:52;;;;;;;5.97;2.27;;;8.70;99.90;;;;;;7750035;28;20231;-87
2023/12/26 15:59:37;;;;;;;5.27;3.10;;;8.70;99.90;;;;;;7750497;28;20283;-90
2023/12/26 16:03:23;;;;;;;4.00;2.10;;;8.60;99.90;;;;;;7748199;28;20678;-90
2023/12/26 16:07:11;;;;;;;6.27;2.00;;;8.60;99.90;;;;;;7744371;28;20200;-89
2023/12/26 16:10:58;;;;;;;6.70;2.53;;;8.60;99.90;;;;;;7747063;28;20187;-89
2023/12/26 16:14:43;;;;;;;6.00;2.80;;;8.60;99.90;;;;;;7725276;28;20359;-90
2023/12/26 16:18:29;;;;;;;5.27;2.73;;;8.50;99.90;;;;;;7751565;28;20222;-89
2023/12/26 16:22:16;;;;;;;5.73;2.20;;;8.50;99.90;;;;;;7743501;28;20275;-90
2023/12/26 16:26:08;;;;;;;4.47;2.27;;;8.50;99.90;;;;;;7755998;28;20615;-89
2023/12/26 16:29:58;;;;;;;6.50;2.10;;;8.50;99.90;;;;;;7748528;28;20200;-90
2023/12/26 16:33:47;;;;;;;6.47;2.30;;;8.40;99.90;;;;;;7749616;28;20287;-90
2023/12/26 16:37:36;;;;;;;4.20;2.57;;;8.40;99.90;;;;;;7748405;28;20190;-90
2023/12/26 16:42:07;;;;;;;5.33;2.70;;;8.40;99.90;;;;;;7749523;28;20651;-89
2023/12/26 16:45:52;;;;;;;5.33;2.53;;;8.50;99.90;;;;;;7763664;28;20203;-89
2023/12/26 16:49:42;;;;;;;4.53;2.60;;;8.50;99.90;;;;;;7758759;28;20269;-89
2023/12/26 16:53:28;;;;;;;4.33;2.80;;;8.50;99.90;;;;;;7743777;28;20239;-90
2023/12/26 16:57:13;;;;;;;5.93;2.80;;;8.40;99.90;;;;;;7744477;28;20188;-89
2023/12/26 17:00:59;;;;;;;8.73;4.20;;;8.30;99.90;;;;;;7749456;28;20192;-89
2023/12/26 17:04:45;;;;;;;5.17;2.60;;;8.20;99.90;;;;;;7743789;28;20452;-89
2023/12/26 17:08:31;;;;;;;6.00;3.07;;;8.10;99.90;;;;;;7752266;28;20279;-89
2023/12/26 17:12:18;;;;;;;5.27;2.60;;;8.10;99.90;;;;;;7748023;28;20425;-89
2023/12/26 17:16:21;;;;;;;4.30;2.73;;;8.10;99.90;;;;;;7743414;28;20223;-89
2023/12/26 17:20:30;;;;;;;4.27;2.30;;;8.00;99.90;;;;;;7724689;28;20180;-90
2023/12/26 17:24:17;;;;;;;4.20;1.90;;;8.00;99.90;;;;;;7750459;28;20800;-89
2023/12/26 17:28:21;;;;;;;4.33;1.80;;;7.90;99.90;;;;;;7747202;28;20204;-89
2023/12/26 17:32:07;;;;;;;6.33;2.30;;;7.90;99.90;;;;;;7770731;28;20270;-89
2023/12/26 17:35:53;;;;;;;3.33;2.03;;;7.90;99.90;;;;;;7753657;28;20246;-89
2023/12/26 17:39:39;;;;;;;5.23;2.20;;;7.80;99.90;;;;;;7723529;28;20230;-90
2023/12/26 17:43:26;;;;;;;4.33;2.40;;;7.80;99.90;;;;;;7743934;28;20768;-89
2023/12/26 17:47:11;;;;;;;12.97;6.90;;;7.80;99.90;;;;;;7754002;28;20296;-89
2023/12/26 17:50:57;;;;;;;4.40;2.90;;;7.70;99.90;;;;;;7762919;28;20180;-89
2023/12/26 17:54:55;;;;;;;9.53;3.00;;;7.80;99.90;;;;;;7745500;28;20192;-89
2023/12/26 17:58:49;;;;;;;3.77;2.40;;;7.70;99.90;;;;;;7766418;28;20183;-89
2023/12/26 18:02:43;;;;;;;4.20;2.13;;;7.70;99.90;;;;;;7760440;28;20187;-89
2023/12/26 18:06:29;;;;;;;4.97;2.30;;;7.70;99.90;;;;;;7758799;28;20204;-89
2023/12/26 18:10:15;;;;;;;7.13;2.40;;;7.70;99.90;;;;;;7776311;28;20177;-89
2023/12/26 18:14:16;;;;;;;5.97;1.80;;;7.60;99.90;;;;;;7768937;28;20204;-89
2023/12/26 18:18:02;;;;;;;4.43;1.70;;;7.60;99.90;;;;;;7749584;28;20206;-90
2023/12/26 18:21:50;;;;;;;3.13;1.93;;;7.60;99.90;;;;;;7754831;28;20682;-90
2023/12/26 18:25:36;;;;;;;5.07;1.90;;;7.60;99.90;;;;;;7714685;28;20208;-89
2023/12/26 18:29:22;;;;;;;9.60;2.50;;;7.60;99.90;;;;;;7745104;28;20215;-90
2023/12/26 18:33:08;;;;;;;6.10;2.53;;;7.60;99.90;;;;;;7761140;28;20233;-89
2023/12/26 18:36:54;;;;;;;9.43;3.33;;;7.50;99.90;;;;;;7752651;28;20318;-89
2023/12/26 18:40:44;;;;;;;11.10;3.83;;;7.50;99.90;;;;;;7758860;28;20234;-89
2023/12/26 18:44:35;;;;;;;10.47;4.90;;;7.50;99.90;;;;;;7745856;28;20202;-89
2023/12/26 18:48:21;;;;;;;8.53;2.60;;;7.50;99.90;;;;;;7745552;28;20195;-90
2023/12/26 18:52:07;;;;;;;5.90;2.13;;;7.50;99.90;;;;;;7745436;28;20179;-89
2023/12/26 18:55:53;;;;;;;4.67;2.27;;;7.40;99.90;;;;;;7744558;28;20319;-89
2023/12/26 18:59:39;;;;;;;3.10;1.77;;;7.40;99.90;;;;;;7745266;28;20173;-89
2023/12/26 19:03:26;;;;;;;4.13;1.63;;;7.40;99.90;;;;;;7769153;28;20295;-89
2023/12/26 19:07:13;;;;;;;5.50;2.10;;;7.40;99.90;;;;;;7757529;28;20995;-90
2023/12/26 19:10:59;;;;;;;3.80;1.60;;;7.40;99.90;;;;;;7752247;28;20614;-89
2023/12/26 19:14:45;;;;;;;5.47;2.13;;;7.50;99.90;;;;;;7749850;28;20198;-90
2023/12/26 19:18:30;;;;;;;7.73;2.20;;;7.50;99.90;;;;;;7780136;28;20179;-89
2023/12/26 19:22:16;;;;;;;4.37;1.60;;;7.50;99.90;;;;;;7759449;28;20564;-89
2023/12/26 19:26:02;;;;;;;7.87;2.10;;;7.50;99.90;;;;;;7749650;28;20219;-89
2023/12/26 19:29:48;;;;;;;5.10;1.97;;;7.50;99.90;;;;;;7750194;28;20196;-89
2023/12/26 19:33:50;;;;;;;6.40;2.03;;;7.50;99.90;;;;;;7749881;28;20725;-89
2023/12/26 19:37:50;;;;;;;7.17;2.53;;;7.50;99.90;;;;;;7751184;28;20160;-89
2023/12/26 19:41:36;;;;;;;6.40;2.30;;;7.50;99.90;;;;;;7749754;28;20180;-89
2023/12/26 19:45:23;;;;;;;8.13;2.70;;;7.50;99.90;;;;;;7748980;28;20200;-90
2023/12/26 19:49:11;;;;;;;5.50;2.30;;;7.50;99.90;;;;;;7749879;28;20207;-90
2023/12/26 19:52:56;;;;;;;7.77;2.50;;;7.50;99.90;;;;;;7749263;28;20195;-89
2023/12/26 19:56:47;;;;;;;5.97;2.23;;;7.50;99.90;;;;;;7747856;28;20184;-90
2023/12/26 20:00:33;;;;;;;5.27;2.80;;;7.50;99.90;;;;;;7766006;28;20171;-90
2023/12/26 20:04:19;;;;;;;4.03;2.30;;;7.40;99.90;;;;;;7755992;28;20241;-90
2023/12/26 20:08:19;;;;;;;3.17;2.30;;;7.40;99.90;;;;;;7751611;28;20200;-89
2023/12/26 20:12:19;;;;;;;4.93;1.80;;;7.40;99.90;;;;;;7758902;28;20203;-89
2023/12/26 20:16:05;;;;;;;7.00;2.83;;;7.40;99.90;;;;;;7748050;28;20215;-89
2023/12/26 20:20:00;;;;;;;6.53;2.70;;;7.40;99.90;;;;;;7748646;28;20188;-90
2023/12/26 20:24:00;;;;;;;7.50;3.50;;;7.40;99.90;;;;;;7738202;28;20203;-89
2023/12/26 20:28:00;;;;;;;4.93;2.40;;;7.30;99.90;;;;;;7745816;28;20227;-90
2023/12/26 20:31:59;;;;;;;5.40;2.23;;;7.30;99.90;;;;;;7748519;28;20318;-90
2023/12/26 20:36:19;;;;;;;4.47;1.97;;;7.30;99.90;;;;;;7759082;28;20195;-89
2023/12/26 20:40:06;;;;;;;4.90;2.17;;;7.30;99.90;;;;;;7754038;28;20179;-90
2023/12/26 20:43:52;;;;;;;6.80;2.27;;;7.30;99.90;;;;;;7762025;28;20282;-90
2023/12/26 20:47:39;;;;;;;4.03;1.73;;;7.20;99.90;;;;;;7769180;28;20219;-90
2023/12/26 20:51:24;;;;;;;4.33;1.70;;;7.20;99.90;;;;;;7751823;28;20172;-89
2023/12/26 20:55:18;;;;;;;7.40;1.60;;;7.20;99.90;;;;;;7752613;28;20208;-89
2023/12/26 20:59:06;;;;;;;6.30;2.00;;;7.10;99.90;;;;;;7749343;28;20203;-89
2023/12/26 21:02:52;;;;;;;4.97;2.20;;;7.10;99.90;;;;;;7754998;28;20183;-90
2023/12/26 21:06:49;;;;;;;4.53;2.33;;;7.10;99.90;;;;;;7746761;28;20200;-89
2023/12/26 21:11:08;;;;;;;8.53;2.07;;;7.10;99.90;;;;;;7744587;28;20722;-89
2023/12/26 21:14:55;;;;;;;8.03;2.20;;;7.10;99.90;;;;;;7758069;28;20199;-89
2023/12/26 21:18:46;;;;;;;5.13;1.97;;;7.10;99.90;;;;;;7745689;28;20196;-90
2023/12/26 21:22:31;;;;;;;6.13;2.00;;;7.10;99.90;;;;;;7735073;28;20243;-89
2023/12/26 21:26:25;;;;;;;4.10;1.77;;;7.00;99.90;;;;;;7767572;28;20456;-90
2023/12/26 21:30:11;;;;;;;4.33;2.07;;;7.00;99.90;;;;;;7747646;28;20196;-89
2023/12/26 21:33:57;;;;;;;5.70;1.70;;;7.00;99.90;;;;;;7745120;28;20725;-89
2023/12/26 21:37:42;;;;;;;6.60;1.90;;;7.00;99.90;;;;;;7743719;28;20658;-89
2023/12/26 21:41:28;;;;;;;4.70;2.10;;;7.00;99.90;;;;;;7743616;28;20196;-89
2023/12/26 21:45:45;;;;;;;4.70;1.80;;;6.90;99.90;;;;;;7745493;28;20298;-89
2023/12/26 21:49:35;;;;;;;6.43;1.53;;;6.90;99.90;;;;;;7746326;28;20212;-89
2023/12/26 21:53:21;;;;;;;4.27;1.10;;;6.90;99.90;;;;;;7743727;28;20214;-89
2023/12/26 21:57:07;;;;;;;6.30;1.70;;;6.80;99.90;;;;;;7745246;28;20665;-89
2023/12/26 22:00:53;;;;;;;7.43;1.73;;;6.90;99.90;;;;;;7745913;28;20630;-89
2023/12/26 22:04:54;;;;;;;6.07;1.63;;;6.80;99.90;;;;;;7748075;28;20200;-89
2023/12/26 22:08:40;;;;;;;5.13;1.10;;;6.80;99.90;;;;;;7745842;28;20206;-90
2023/12/26 22:12:33;;;;;;;6.33;1.30;;;6.80;99.90;;;;;;7746169;28;20188;-89
2023/12/26 22:16:22;;;;;;;5.37;1.53;;;6.80;99.90;;;;;;7737387;28;20203;-89
2023/12/26 22:20:08;;;;;;;3.97;1.40;;;6.80;99.90;;;;;;7745757;28;20180;-90
2023/12/26 22:23:56;;;;;;;6.17;1.50;;;6.80;99.90;;;;;;7744712;28;20290;-89
2023/12/26 22:27:46;;;;;;;5.50;1.43;;;6.70;99.90;;;;;;7744931;28;20199;-90
2023/12/26 22:31:31;;;;;;;3.80;1.47;;;6.70;99.90;;;;;;7756359;28;20644;-90
2023/12/26 22:35:17;;;;;;;8.57;1.70;;;6.70;99.90;;;;;;7775003;28;20565;-90
2023/12/26 22:39:03;;;;;;;6.07;1.70;;;6.70;99.90;;;;;;7774972;28;20179;-90
2023/12/26 22:42:49;;;;;;;5.17;1.67;;;6.70;99.90;;;;;;7774514;28;20704;-90
2023/12/26 22:46:35;;;;;;;4.63;1.67;;;6.70;99.90;;;;;;7746262;28;20204;-90
2023/12/26 22:50:21;;;;;;;3.73;1.50;;;6.80;99.90;;;;;;7768194;28;20175;-89
2023/12/26 22:54:07;;;;;;;4.03;1.40;;;6.80;99.90;;;;;;7775016;28;20719;-90
2023/12/26 22:57:52;;;;;;;5.70;1.33;;;6.80;99.90;;;;;;7774910;28;20179;-89